Time;durP1;ratioP1;P1;durP2;ratioP2;P2;SDS_P1;SDS_P2;PMS_P1;PMS_P2;Temp;Humidity;BMP_temperature;BMP_pressure;BME280_temperature;BME280_humidity;BME280_pressure;Samples;Min_cycle;Max_cycle;Signal;HPM_P1;HPM_P2
2024/04/07 00:01:14;;;;;;;5.90;1.58;;;;;;;15.12;100.00;98539.50;4967168;28;20095;-73
2024/04/07 00:03:40;;;;;;;5.47;1.33;;;;;;;15.12;100.00;98535.97;4962989;28;20094;-74
2024/04/07 00:06:05;;;;;;;4.63;1.23;;;;;;;15.08;100.00;98532.03;4968697;28;20104;-73
2024/04/07 00:08:30;;;;;;;3.53;1.35;;;;;;;15.09;100.00;98531.81;4967557;28;20023;-74
2024/04/07 00:10:56;;;;;;;5.07;1.70;;;;;;;15.08;100.00;98521.97;4966064;28;20222;-73
2024/04/07 00:13:21;;;;;;;5.10;1.42;;;;;;;14.99;100.00;98492.63;4966898;28;20042;-73
2024/04/07 00:15:46;;;;;;;5.82;1.73;;;;;;;15.17;100.00;98510.69;4967413;28;20045;-74
2024/04/07 00:18:12;;;;;;;6.22;1.35;;;;;;;15.32;100.00;98513.75;4965568;28;20030;-73
2024/04/07 00:20:38;;;;;;;3.72;1.20;;;;;;;15.17;100.00;98494.34;4966266;28;20025;-74
2024/04/07 00:23:03;;;;;;;4.75;1.40;;;;;;;15.40;100.00;98510.63;4968635;28;20245;-73
2024/04/07 00:25:29;;;;;;;3.03;1.20;;;;;;;15.49;100.00;98514.66;4962197;28;20105;-73
2024/04/07 00:27:54;;;;;;;4.00;1.10;;;;;;;15.50;100.00;98519.00;4966276;28;20314;-73
2024/04/07 00:30:19;;;;;;;3.25;1.40;;;;;;;15.56;100.00;98503.56;4982415;28;20330;-74
2024/04/07 00:32:45;;;;;;;7.32;1.30;;;;;;;15.68;100.00;98496.19;4982078;28;20081;-74
2024/04/07 00:35:10;;;;;;;2.33;1.15;;;;;;;15.84;100.00;98507.41;4982719;28;20031;-74
2024/04/07 00:37:35;;;;;;;5.30;1.20;;;;;;;15.85;100.00;98500.88;4986038;28;20031;-74
2024/04/07 00:40:00;;;;;;;3.30;1.20;;;;;;;15.83;100.00;98495.69;4962919;28;20038;-75
2024/04/07 00:42:26;;;;;;;2.13;1.13;;;;;;;15.81;100.00;98494.28;4982917;28;20022;-74
2024/04/07 00:44:51;;;;;;;2.70;1.10;;;;;;;15.68;100.00;98484.47;4983297;28;20026;-74
2024/04/07 00:47:17;;;;;;;5.25;1.10;;;;;;;15.64;100.00;98494.19;4981152;28;20286;-74
2024/04/07 00:49:43;;;;;;;3.00;1.23;;;;;;;15.57;100.00;98489.72;4978930;28;20027;-74
2024/04/07 00:52:11;;;;;;;2.40;1.10;;;;;;;15.55;100.00;98497.31;4966405;28;20034;-73
2024/04/07 00:54:38;;;;;;;3.35;1.45;;;;;;;15.53;100.00;98495.88;4983755;28;20101;-74
2024/04/07 00:57:04;;;;;;;1.95;1.05;;;;;;;15.39;100.00;98487.19;4964207;28;20018;-73
2024/04/07 00:59:29;;;;;;;1.92;0.98;;;;;;;15.33;100.00;98482.72;4980446;28;20221;-74
2024/04/07 01:01:55;;;;;;;4.40;1.05;;;;;;;15.51;100.00;98493.44;4979801;28;20037;-74
2024/04/07 01:04:20;;;;;;;2.63;0.95;;;;;;;15.53;100.00;98474.91;4962815;28;20090;-74
2024/04/07 01:06:45;;;;;;;2.45;0.88;;;;;;;15.81;100.00;98492.38;4985430;28;20058;-73
2024/04/07 01:09:11;;;;;;;3.28;1.20;;;;;;;15.92;100.00;98499.66;4978699;28;20098;-74
2024/04/07 01:11:36;;;;;;;2.78;1.00;;;;;;;15.76;100.00;98495.00;4986581;28;20022;-74
2024/04/07 01:14:02;;;;;;;5.28;1.58;;;;;;;15.76;100.00;98501.28;4978460;28;20030;-74
2024/04/07 01:16:28;;;;;;;2.05;1.00;;;;;;;15.60;100.00;98466.59;4977372;28;20027;-73
2024/04/07 01:18:53;;;;;;;1.85;0.90;;;;;;;15.73;100.00;98485.41;4980973;28;20209;-74
2024/04/07 01:21:18;;;;;;;2.20;0.98;;;;;;;15.70;100.00;98493.25;4984255;28;20035;-74
2024/04/07 01:23:44;;;;;;;2.85;1.00;;;;;;;15.61;100.00;98491.94;4982534;28;20057;-74
2024/04/07 01:26:09;;;;;;;6.43;1.20;;;;;;;15.57;100.00;98508.81;4982230;28;20034;-74
2024/04/07 01:28:35;;;;;;;3.67;1.00;;;;;;;15.48;100.00;98507.56;4992865;28;20026;-74
2024/04/07 01:31:01;;;;;;;3.13;1.10;;;;;;;15.57;100.00;98503.34;4981865;28;20089;-74
2024/04/07 01:33:26;;;;;;;2.58;0.77;;;;;;;15.46;100.00;98485.16;4978365;28;20034;-74
2024/04/07 01:35:51;;;;;;;4.05;0.80;;;;;;;15.50;100.00;98489.03;4983773;28;20082;-74
2024/04/07 01:38:17;;;;;;;3.75;1.30;;;;;;;15.47;100.00;98494.16;4980605;28;20151;-74
2024/04/07 01:40:44;;;;;;;4.30;1.30;;;;;;;15.30;100.00;98494.91;4965776;28;20018;-75
2024/04/07 01:43:09;;;;;;;5.65;1.38;;;;;;;15.23;100.00;98513.28;4980680;28;20034;-75
2024/04/07 01:45:34;;;;;;;3.30;1.40;;;;;;;15.03;100.00;98518.31;4964872;28;20074;-74
2024/04/07 01:48:00;;;;;;;3.67;1.48;;;;;;;14.77;100.00;98512.28;4981864;28;20214;-74
2024/04/07 01:50:26;;;;;;;3.45;1.30;;;;;;;14.56;100.00;98519.16;4980325;28;20027;-74
2024/04/07 01:52:52;;;;;;;2.08;1.00;;;;;;;14.62;100.00;98523.66;4963477;28;20317;-73
2024/04/07 01:55:17;;;;;;;2.58;1.20;;;;;;;14.80;100.00;98500.09;4984764;28;20103;-73
2024/04/07 01:57:43;;;;;;;6.95;1.33;;;;;;;14.92;100.00;98519.16;4983355;28;20030;-73
2024/04/07 02:00:10;;;;;;;2.67;1.27;;;;;;;15.11;100.00;98528.84;4982397;28;20349;-73
2024/04/07 02:02:35;;;;;;;8.20;1.30;;;;;;;15.12;100.00;98514.97;4983562;28;20022;-73
2024/04/07 02:05:00;;;;;;;3.83;1.30;;;;;;;14.99;100.00;98515.25;4985998;28;20066;-73
2024/04/07 02:07:26;;;;;;;2.55;1.17;;;;;;;14.79;100.00;98518.31;4979748;28;20098;-72
2024/04/07 02:09:51;;;;;;;3.88;1.52;;;;;;;14.67;100.00;98501.16;4979622;28;20027;-73
2024/04/07 02:12:16;;;;;;;4.10;1.45;;;;;;;14.56;100.00;98516.44;4979848;28;20030;-73
2024/04/07 02:14:43;;;;;;;6.95;1.73;;;;;;;14.32;100.00;98498.41;4982600;28;20037;-72
2024/04/07 02:17:11;;;;;;;8.85;1.65;;;;;;;14.18;100.00;98514.13;4979171;28;20101;-73
2024/04/07 02:19:36;;;;;;;3.63;1.80;;;;;;;14.07;100.00;98523.91;4980050;28;20050;-74
2024/04/07 02:22:02;;;;;;;4.20;1.38;;;;;;;13.97;100.00;98518.22;4979528;28;20018;-74
2024/04/07 02:24:27;;;;;;;5.43;1.90;;;;;;;13.84;100.00;98524.69;4980097;28;20023;-73
2024/04/07 02:26:52;;;;;;;2.83;1.30;;;;;;;13.70;100.00;98521.31;4981644;28;20049;-73
2024/04/07 02:29:18;;;;;;;4.95;1.67;;;;;;;13.66;100.00;98530.97;4981709;28;20145;-73
2024/04/07 02:31:43;;;;;;;2.97;1.10;;;;;;;13.65;100.00;98537.50;4978335;28;20035;-73
2024/04/07 02:34:09;;;;;;;2.67;1.40;;;;;;;13.59;100.00;98532.97;4980330;28;20322;-73
2024/04/07 02:36:34;;;;;;;3.85;1.40;;;;;;;13.38;100.00;98517.97;4978524;28;20078;-74
2024/04/07 02:39:00;;;;;;;1.60;1.02;;;;;;;13.56;100.00;98539.69;4986300;28;20109;-74
2024/04/07 02:41:25;;;;;;;6.35;1.20;;;;;;;13.66;100.00;98541.88;4980278;28;20073;-74
2024/04/07 02:43:51;;;;;;;4.55;1.40;;;;;;;13.64;100.00;98532.28;4979522;28;20029;-74
2024/04/07 02:49:00;;;;;;;3.20;1.45;;;;;;;13.88;100.00;98516.88;4980815;28;20030;-73
2024/04/07 02:51:25;;;;;;;4.03;1.25;;;;;;;14.19;100.00;98543.81;4981381;28;20230;-73
2024/04/07 02:53:51;;;;;;;2.22;1.27;;;;;;;14.14;100.00;98545.56;4965916;28;20027;-73
2024/04/07 02:56:16;;;;;;;5.65;1.30;;;;;;;14.04;100.00;98548.84;4976320;28;20027;-74
2024/04/07 02:58:42;;;;;;;4.22;1.48;;;;;;;13.95;100.00;98544.81;4978419;28;20034;-73
2024/04/07 03:01:08;;;;;;;3.28;1.42;;;;;;;13.91;100.00;98551.75;4965392;28;20281;-74
2024/04/07 03:03:34;;;;;;;2.90;1.50;;;;;;;13.77;100.00;98545.69;4983991;28;20023;-74
2024/04/07 03:06:08;;;;;;;5.50;1.90;;;;;;;13.70;100.00;98553.94;5071979;23;20082;-61
2024/04/07 03:08:37;;;;;;;3.58;1.30;;;;;;;13.50;100.00;98558.81;4977158;28;20442;-61
2024/04/07 03:11:04;;;;;;;2.88;1.25;;;;;;;13.41;100.00;98574.56;4979445;28;20019;-61
2024/04/07 03:13:30;;;;;;;4.30;1.30;;;;;;;13.40;100.00;98574.81;4973408;28;20114;-61
2024/04/07 03:15:55;;;;;;;2.47;0.93;;;;;;;13.71;100.00;98571.09;4971195;28;20117;-60
2024/04/07 03:18:21;;;;;;;1.92;1.10;;;;;;;13.87;100.00;98577.78;4975913;28;20119;-62
2024/04/07 03:20:47;;;;;;;1.80;1.00;;;;;;;13.98;100.00;98572.38;4970409;28;20078;-61
2024/04/07 03:23:12;;;;;;;3.38;1.23;;;;;;;14.01;100.00;98573.78;4974850;28;20037;-61
2024/04/07 03:25:39;;;;;;;7.03;1.40;;;;;;;13.88;100.00;98587.59;4982008;28;20470;-61
2024/04/07 03:28:05;;;;;;;3.03;1.20;;;;;;;13.77;100.00;98600.88;4976032;28;20023;-59
2024/04/07 03:30:31;;;;;;;3.85;1.10;;;;;;;13.64;100.00;98601.06;4976273;28;20033;-59
2024/04/07 03:32:56;;;;;;;3.22;1.42;;;;;;;13.34;100.00;98607.28;4975673;28;20398;-59
2024/04/07 03:35:22;;;;;;;1.77;1.13;;;;;;;13.19;100.00;98614.91;4973799;28;20093;-59
2024/04/07 03:37:47;;;;;;;3.10;1.30;;;;;;;13.09;100.00;98620.03;4978379;28;20447;-59
2024/04/07 03:40:14;;;;;;;7.63;1.30;;;;;;;13.02;100.00;98617.41;4976667;28;20030;-59
2024/04/07 03:42:41;;;;;;;3.45;1.02;;;;;;;13.18;100.00;98634.16;4972591;28;20033;-60
2024/04/07 03:45:09;;;;;;;1.80;1.30;;;;;;;13.24;100.00;98639.53;4956540;28;20496;-60
2024/04/07 03:47:35;;;;;;;2.78;1.23;;;;;;;13.20;100.00;98637.47;4976495;28;20035;-62
2024/04/07 03:50:01;;;;;;;5.75;1.25;;;;;;;13.12;100.00;98639.41;4978125;28;20037;-63
2024/04/07 03:52:26;;;;;;;5.47;1.45;;;;;;;12.98;100.00;98629.75;4960958;28;20031;-60
2024/04/07 03:54:52;;;;;;;4.30;1.30;;;;;;;12.93;100.00;98641.28;4975739;28;20393;-60
2024/04/07 03:57:17;;;;;;;2.80;1.40;;;;;;;12.84;100.00;98648.06;4977056;28;20066;-59
2024/04/07 03:59:42;;;;;;;4.00;1.25;;;;;;;12.74;100.00;98649.59;4974384;28;20027;-59
2024/04/07 04:02:08;;;;;;;2.42;1.00;;;;;;;12.64;100.00;98655.53;4973003;28;20034;-59
2024/04/07 04:04:33;;;;;;;10.05;1.40;;;;;;;12.70;100.00;98660.06;4975973;28;20043;-59
2024/04/07 04:06:59;;;;;;;4.20;1.20;;;;;;;12.56;100.00;98672.91;4974998;28;20488;-59
2024/04/07 04:09:24;;;;;;;2.00;1.20;;;;;;;12.52;100.00;98679.81;4975100;28;20038;-61
2024/04/07 04:11:50;;;;;;;1.35;0.82;;;;;;;12.46;100.00;98670.66;4971922;28;20073;-59
2024/04/07 04:14:15;;;;;;;3.05;1.20;;;;;;;12.63;100.00;98681.00;4974929;28;20411;-59
2024/04/07 04:16:41;;;;;;;3.90;1.20;;;;;;;12.77;100.00;98682.56;4973071;28;20034;-59
2024/04/07 04:19:07;;;;;;;2.28;1.20;;;;;;;12.85;100.00;98684.19;4975248;28;20078;-59
2024/04/07 04:21:33;;;;;;;3.10;1.00;;;;;;;12.86;100.00;98686.69;4972326;28;20375;-59
2024/04/07 04:23:59;;;;;;;1.58;0.90;;;;;;;12.82;100.00;98685.44;4975364;28;20031;-59
2024/04/07 04:26:26;;;;;;;2.20;0.93;;;;;;;12.73;100.00;98681.31;4977754;28;20018;-59
2024/04/07 04:28:53;;;;;;;3.13;1.27;;;;;;;12.55;100.00;98689.38;4974585;28;20094;-59
2024/04/07 04:31:18;;;;;;;5.15;0.98;;;;;;;12.45;100.00;98693.44;4973676;28;20035;-59
2024/04/07 04:33:44;;;;;;;2.58;1.05;;;;;;;12.37;100.00;98709.97;4976192;28;20026;-59
2024/04/07 04:36:13;;;;;;;4.65;1.27;;;;;;;12.19;100.00;98705.25;4977431;28;20062;-68
2024/04/07 04:38:39;;;;;;;2.47;1.20;;;;;;;12.00;100.00;98726.00;4977483;28;20019;-61
2024/04/07 04:41:05;;;;;;;7.80;1.30;;;;;;;12.00;100.00;98725.19;4986204;28;20023;-60
2024/04/07 04:43:31;;;;;;;2.05;1.08;;;;;;;11.85;100.00;98720.78;4981828;28;20022;-63
2024/04/07 04:46:13;;;;;;;2.83;1.20;;;;;;;11.94;100.00;98726.00;4974742;28;20035;-59
2024/04/07 04:48:38;;;;;;;3.33;1.30;;;;;;;11.96;100.00;98732.88;4977353;28;20045;-60
2024/04/07 04:51:04;;;;;;;3.45;1.15;;;;;;;11.90;100.00;98720.19;4973068;28;20023;-62
2024/04/07 04:53:30;;;;;;;4.47;1.50;;;;;;;12.02;100.00;98737.44;4980435;28;20098;-64
2024/04/07 04:56:01;;;;;;;3.70;1.20;;;;;;;12.03;100.00;98727.44;4971754;28;20081;-61
2024/04/07 04:58:30;;;;;;;3.78;1.17;;;;;;;12.02;100.00;98732.00;4978480;28;20034;-64
2024/04/07 05:01:09;;;;;;;2.78;1.35;;;;;;;11.99;100.00;98737.03;4975313;28;20027;-60
2024/04/07 05:03:35;;;;;;;4.10;1.30;;;;;;;11.95;100.00;98744.78;4977263;28;20388;-69
2024/04/07 05:06:14;;;;;;;3.53;1.35;;;;;;;11.98;100.00;98759.81;4973050;28;20039;-60
2024/04/07 05:08:41;;;;;;;1.92;1.25;;;;;;;11.97;100.00;98763.53;4967732;28;20106;-61
2024/04/07 05:11:07;;;;;;;6.38;1.40;;;;;;;11.92;100.00;98764.19;4941183;28;20038;-60
2024/04/07 05:13:33;;;;;;;5.43;1.15;;;;;;;11.85;100.00;98766.06;4978794;28;20466;-60
2024/04/07 05:15:59;;;;;;;5.07;1.40;;;;;;;11.94;100.00;98778.34;4976108;28;20045;-61
2024/04/07 05:18:26;;;;;;;3.45;1.17;;;;;;;12.02;100.00;98767.28;4974087;28;20544;-60
2024/04/07 05:20:55;;;;;;;7.43;1.50;;;;;;;12.13;100.00;98771.22;4972594;28;20018;-60
2024/04/07 05:23:21;;;;;;;5.30;1.08;;;;;;;12.34;100.00;98780.09;4978314;28;20033;-60
2024/04/07 05:25:48;;;;;;;4.68;1.27;;;;;;;12.53;100.00;98789.22;4948057;28;20033;-60
2024/04/07 05:28:13;;;;;;;4.88;1.33;;;;;;;12.67;100.00;98796.22;4967005;28;20039;-61
2024/04/07 05:30:39;;;;;;;3.53;1.20;;;;;;;12.67;100.00;98797.03;4971393;28;20027;-63
2024/04/07 05:33:05;;;;;;;4.65;0.90;;;;;;;12.58;100.00;98798.38;4976871;28;20061;-60
2024/04/07 05:35:34;;;;;;;4.72;1.13;;;;;;;12.50;100.00;98802.16;4972119;28;20042;-60
2024/04/07 05:38:00;;;;;;;;;;;;;;;12.47;100.00;98809.88;4964863;28;20089;-60
2024/04/07 05:40:26;;;;;;;2.45;1.10;;;;;;;12.43;100.00;98804.06;4976603;28;19964;-63
2024/04/07 05:42:53;;;;;;;3.78;1.02;;;;;;;12.48;100.00;98801.53;4972286;28;20062;-60
2024/04/07 05:45:18;;;;;;;6.10;1.10;;;;;;;12.57;100.00;98799.41;4964867;28;20019;-60
2024/04/07 05:47:51;;;;;;;2.95;1.30;;;;;;;12.66;100.00;98813.56;4968455;28;20089;-60
2024/04/07 05:50:17;;;;;;;1.88;1.00;;;;;;;12.77;100.00;98814.75;4973458;28;20501;-60
2024/04/07 05:52:43;;;;;;;4.68;1.02;;;;;;;12.90;100.00;98806.53;4972765;28;20074;-63
2024/04/07 05:55:11;;;;;;;2.83;0.93;;;;;;;12.99;100.00;98821.50;4973015;28;20027;-64
2024/04/07 05:57:37;;;;;;;4.72;1.38;;;;;;;13.12;100.00;98826.03;4974959;28;20071;-60
2024/04/07 06:00:06;;;;;;;2.30;1.10;;;;;;;13.21;100.00;98829.31;4968400;28;20031;-60
2024/04/07 06:02:33;;;;;;;1.95;1.00;;;;;;;13.15;100.00;98825.56;4972239;28;20486;-60
2024/04/07 06:04:59;;;;;;;3.00;0.90;;;;;;;13.23;100.00;98832.63;4940034;28;1141223;-60
2024/04/07 06:07:24;;;;;;;1.98;1.20;;;;;;;13.36;100.00;98833.44;4972298;28;20114;-60
2024/04/07 06:09:50;;;;;;;5.00;1.08;;;;;;;13.52;100.00;98847.53;4968023;28;20033;-60
2024/04/07 06:12:17;;;;;;;6.40;1.48;;;;;;;13.86;100.00;98853.47;4977117;28;20034;-60
2024/04/07 06:14:43;;;;;;;2.78;1.33;;;;;;;14.38;100.00;98851.28;4973966;28;20037;-60
2024/04/07 06:17:09;;;;;;;2.53;1.00;;;;;;;15.76;100.00;98849.59;4958694;28;20026;-60
2024/04/07 06:19:34;;;;;;;2.35;1.13;;;;;;;16.09;100.00;98857.22;4973044;28;20381;-62
2024/04/07 06:21:59;;;;;;;3.15;1.27;;;;;;;16.47;100.00;98855.84;4973000;28;20026;-62
2024/04/07 06:24:25;;;;;;;3.15;1.30;;;;;;;17.74;100.00;98859.38;4969664;28;20023;-62
2024/04/07 06:26:50;;;;;;;3.97;1.05;;;;;;;20.72;100.00;98862.34;4973433;28;20109;-62
2024/04/07 06:29:15;;;;;;;4.78;1.27;;;;;;;23.36;87.54;98858.81;4972510;28;20026;-63
2024/04/07 06:31:42;;;;;;;8.13;1.20;;;;;;;26.15;73.44;98870.00;4974527;28;20027;-63
2024/04/07 06:34:07;;;;;;;2.80;0.90;;;;;;;28.13;64.86;98866.88;4969686;28;20030;-63
2024/04/07 06:36:33;;;;;;;8.88;1.30;;;;;;;29.10;59.22;98863.38;4971685;28;20045;-63
2024/04/07 06:38:59;;;;;;;5.72;1.30;;;;;;;29.05;56.51;98858.78;4979683;28;20110;-64
2024/04/07 06:41:24;;;;;;;6.30;1.13;;;;;;;29.40;52.82;98863.63;4972574;28;20094;-64
2024/04/07 06:43:49;;;;;;;4.22;1.10;;;;;;;29.93;50.98;98860.50;4974335;28;20102;-64
2024/04/07 06:46:15;;;;;;;4.90;1.42;;;;;;;28.86;48.04;98874.13;4969896;28;20031;-64
2024/04/07 06:48:40;;;;;;;8.18;1.20;;;;;;;29.26;46.77;98884.06;4961872;28;20109;-63
2024/04/07 06:51:06;;;;;;;7.78;1.25;;;;;;;28.09;47.95;98884.53;4969732;28;20378;-63
2024/04/07 06:53:31;;;;;;;5.88;1.40;;;;;;;28.15;48.54;98886.03;4975133;28;20367;-65
2024/04/07 06:55:57;;;;;;;4.80;1.00;;;;;;;27.89;48.91;98881.09;4970090;28;20018;-63
2024/04/07 06:58:22;;;;;;;4.38;1.20;;;;;;;26.43;51.89;98882.78;4967197;28;20030;-63
2024/04/07 07:00:47;;;;;;;8.15;1.15;;;;;;;24.83;55.07;98890.97;4968696;28;20066;-63
2024/04/07 07:03:13;;;;;;;4.82;1.08;;;;;;;26.18;54.72;98888.81;4966916;28;20042;-63
2024/04/07 07:05:38;;;;;;;4.70;1.33;;;;;;;27.64;53.42;98881.69;4972433;28;20163;-63
2024/04/07 07:08:05;;;;;;;5.50;1.33;;;;;;;29.22;51.23;98879.50;4957494;28;20390;-63
2024/04/07 07:10:30;;;;;;;4.40;1.33;;;;;;;30.43;48.00;98894.56;4970998;28;20073;-63
2024/04/07 07:12:55;;;;;;;3.90;1.10;;;;;;;30.23;48.47;98896.06;4967221;28;20031;-63
2024/04/07 07:15:21;;;;;;;4.13;1.20;;;;;;;31.02;46.86;98914.22;4968641;28;20475;-64
2024/04/07 07:17:46;;;;;;;5.78;1.20;;;;;;;31.99;45.73;98913.31;4962159;28;20067;-63
2024/04/07 07:20:12;;;;;;;6.10;1.60;;;;;;;31.36;44.67;98909.59;4964217;28;20034;-63
2024/04/07 07:22:38;;;;;;;8.43;1.48;;;;;;;31.96;43.43;98899.16;4963102;28;20034;-63
2024/04/07 07:25:04;;;;;;;5.07;1.02;;;;;;;31.65;43.80;98898.41;4960917;28;20486;-63
2024/04/07 07:27:30;;;;;;;3.42;1.10;;;;;;;30.89;45.38;98896.56;4963762;28;20038;-63
2024/04/07 07:29:55;;;;;;;4.93;0.98;;;;;;;31.43;44.82;98893.16;4962108;28;20035;-63
2024/04/07 07:32:21;;;;;;;7.68;1.77;;;;;;;33.20;42.78;98901.06;4967999;28;20046;-63
2024/04/07 07:34:46;;;;;;;5.57;1.10;;;;;;;34.00;42.20;98911.53;4968070;28;20093;-64
2024/04/07 07:37:17;;;;;;;5.93;1.10;;;;;;;32.60;42.61;98912.69;4965991;28;20058;-63
2024/04/07 07:39:43;;;;;;;5.60;1.10;;;;;;;30.20;45.60;98917.06;4964367;28;20514;-63
2024/04/07 07:42:10;;;;;;;4.78;1.00;;;;;;;30.38;47.06;98920.69;4977683;28;20038;-60
2024/04/07 07:44:35;;;;;;;8.27;1.20;;;;;;;29.82;45.52;98928.13;4970659;28;20558;-61
2024/04/07 07:47:01;;;;;;;5.35;1.05;;;;;;;31.63;45.43;98937.09;4949551;28;20141;-61
2024/04/07 07:49:26;;;;;;;3.70;1.10;;;;;;;33.29;45.19;98947.44;4967509;28;20086;-61
2024/04/07 07:51:53;;;;;;;5.82;1.10;;;;;;;34.24;43.27;98941.53;4970832;28;20037;-61
2024/04/07 07:54:19;;;;;;;4.63;1.40;;;;;;;32.47;43.64;98942.66;4968383;28;20043;-61
2024/04/07 07:56:44;;;;;;;3.13;1.00;;;;;;;31.81;46.04;98956.56;4966154;28;20092;-60
2024/04/07 07:59:09;;;;;;;6.53;1.08;;;;;;;31.49;47.37;98956.09;4968537;28;20100;-62
2024/04/07 08:01:35;;;;;;;5.15;1.00;;;;;;;31.74;46.10;98959.06;4976138;28;20050;-61
2024/04/07 08:04:00;;;;;;;5.00;1.05;;;;;;;30.85;46.10;98961.81;4977962;28;20125;-62
2024/04/07 08:06:26;;;;;;;5.47;0.98;;;;;;;28.65;47.59;98960.19;4978966;28;20033;-62
2024/04/07 08:08:51;;;;;;;6.47;1.60;;;;;;;27.31;49.92;98966.06;4976211;28;20050;-61
2024/04/07 08:11:17;;;;;;;7.20;1.08;;;;;;;26.56;52.20;98967.19;4974758;28;20069;-61
2024/04/07 08:13:42;;;;;;;4.72;1.00;;;;;;;25.83;53.65;98976.09;4972575;28;20050;-62
2024/04/07 08:16:08;;;;;;;4.88;1.17;;;;;;;24.30;55.15;98984.19;4975541;28;20062;-61
2024/04/07 08:18:34;;;;;;;6.60;0.93;;;;;;;23.16;58.69;98961.91;4970507;28;20059;-61
2024/04/07 08:20:59;;;;;;;6.32;1.23;;;;;;;23.04;62.09;98982.66;4976094;28;20034;-61
2024/04/07 08:23:25;;;;;;;3.38;0.88;;;;;;;22.84;62.53;98984.31;4979468;28;20034;-60
2024/04/07 08:25:51;;;;;;;5.40;1.02;;;;;;;23.59;62.28;98989.03;4975245;28;20039;-61
2024/04/07 08:28:16;;;;;;;5.90;0.90;;;;;;;24.60;60.37;98992.25;4977345;28;20027;-61
2024/04/07 08:30:42;;;;;;;6.32;1.00;;;;;;;24.62;59.59;98995.53;4969277;28;20097;-62
2024/04/07 08:33:08;;;;;;;4.65;0.90;;;;;;;23.89;59.84;99001.88;4974475;28;20025;-61
2024/04/07 08:35:33;;;;;;;4.45;0.70;;;;;;;23.70;62.10;99007.22;4975928;28;20121;-61
2024/04/07 08:37:58;;;;;;;4.97;1.50;;;;;;;25.18;60.24;99018.22;4965825;28;20026;-62
2024/04/07 08:40:25;;;;;;;6.15;1.15;;;;;;;24.32;61.49;99024.25;4967741;28;20038;-60
2024/04/07 08:42:51;;;;;;;4.80;0.80;;;;;;;24.87;60.69;99013.00;4951755;28;20035;-61
2024/04/07 08:45:19;;;;;;;6.63;1.05;;;;;;;25.13;60.96;99010.78;4975303;28;20381;-61
2024/04/07 08:47:46;;;;;;;5.38;0.85;;;;;;;24.81;60.51;99014.16;4967175;28;20031;-62
2024/04/07 08:50:13;;;;;;;7.72;0.98;;;;;;;25.11;61.00;99013.84;4966762;28;20517;-62
2024/04/07 08:52:39;;;;;;;6.90;1.40;;;;;;;25.16;59.01;99006.63;4957525;28;20023;-62
2024/04/07 08:55:05;;;;;;;8.25;1.17;;;;;;;25.46;58.88;99003.47;4974644;28;20394;-62
2024/04/07 08:57:31;;;;;;;5.75;1.02;;;;;;;24.49;61.23;99008.09;4974982;28;20063;-69
2024/04/07 08:59:59;;;;;;;10.48;1.33;;;;;;;24.85;60.49;99004.16;4971943;28;20030;-61
2024/04/07 09:02:28;;;;;;;6.07;1.08;;;;;;;25.09;59.96;99007.75;4970406;28;20035;-61
2024/04/07 09:04:53;;;;;;;6.13;1.42;;;;;;;24.90;61.13;99001.34;4981818;23;20023;-75
2024/04/07 09:07:19;;;;;;;4.45;0.80;;;;;;;26.99;58.77;99003.06;5003496;28;20044;-75
2024/04/07 09:09:44;;;;;;;6.00;1.25;;;;;;;28.63;55.54;99008.63;5001101;28;20026;-74
2024/04/07 09:12:10;;;;;;;7.43;1.10;;;;;;;30.87;52.46;98998.63;4999408;28;20280;-74
2024/04/07 09:14:39;;;;;;;4.57;1.00;;;;;;;31.69;49.32;99001.22;5005258;28;20284;-76
2024/04/07 09:17:08;;;;;;;8.73;1.45;;;;;;;32.68;47.80;99003.41;4997685;28;20025;-77
2024/04/07 09:19:35;;;;;;;5.30;1.05;;;;;;;32.29;47.17;99008.38;4991461;23;20042;-57
2024/04/07 09:22:05;;;;;;;5.47;0.95;;;;;;;31.46;48.18;99001.50;4988166;28;20056;-57
2024/04/07 09:24:32;;;;;;;3.45;1.08;;;;;;;32.78;48.03;99005.78;4992414;28;20022;-57
2024/04/07 09:26:59;;;;;;;9.43;0.80;;;;;;;32.20;47.12;99014.06;4969820;28;20121;-58
2024/04/07 09:29:28;;;;;;;6.22;1.27;;;;;;;31.47;47.29;99011.56;4971169;28;20030;-57
2024/04/07 09:31:54;;;;;;;7.50;1.25;;;;;;;30.61;48.21;99013.44;4971208;28;20031;-57
2024/04/07 09:34:20;;;;;;;3.15;0.75;;;;;;;30.35;49.65;99017.09;4972008;28;20038;-57
2024/04/07 09:36:45;;;;;;;7.47;1.50;;;;;;;29.90;50.07;99017.38;4965241;28;20039;-58
2024/04/07 09:39:11;;;;;;;4.95;1.40;;;;;;;26.88;52.52;99021.03;4968672;28;20037;-58
2024/04/07 09:41:37;;;;;;;9.38;1.13;;;;;;;28.77;51.86;99019.72;4966411;28;20029;-57
2024/04/07 09:44:09;;;;;;;6.95;1.33;;;;;;;29.67;51.47;99015.88;4963258;28;20023;-58
2024/04/07 09:46:39;;;;;;;5.53;0.95;;;;;;;30.10;49.76;99015.94;4966813;28;20522;-58
2024/04/07 09:49:08;;;;;;;6.43;0.90;;;;;;;30.14;49.47;99018.88;4968797;28;20037;-58
2024/04/07 09:51:45;;;;;;;3.85;1.33;;;;;;;30.13;49.25;99020.03;4964593;28;20045;-59
2024/04/07 09:54:18;;;;;;;5.05;1.52;;;;;;;30.72;49.60;99002.75;4970039;28;20030;-59
2024/04/07 09:56:45;;;;;;;6.35;1.23;;;;;;;30.51;48.69;99002.63;4963311;28;20042;-58
2024/04/07 09:59:10;;;;;;;5.55;1.05;;;;;;;30.14;49.54;99010.50;4966922;28;20030;-57
2024/04/07 10:01:36;;;;;;;4.18;1.00;;;;;;;30.40;48.57;99015.28;4966143;28;20122;-58
2024/04/07 10:04:03;;;;;;;2.83;1.17;;;;;;;31.07;49.85;99005.44;4969248;28;20046;-58
2024/04/07 10:06:30;;;;;;;6.38;1.25;;;;;;;31.73;49.65;99002.16;4980623;28;20419;-58
2024/04/07 10:08:56;;;;;;;5.10;1.27;;;;;;;31.88;48.94;99002.38;4971443;28;20037;-58
2024/04/07 10:11:22;;;;;;;4.25;1.20;;;;;;;33.61;46.83;99003.78;4972754;28;20043;-58
2024/04/07 10:13:48;;;;;;;5.20;1.20;;;;;;;35.47;45.67;99003.44;4971428;28;20026;-58
2024/04/07 10:16:14;;;;;;;6.38;1.17;;;;;;;37.45;42.59;99000.69;4975796;28;20483;-57
2024/04/07 10:18:46;;;;;;;6.57;0.98;;;;;;;38.42;39.43;98995.63;4976301;28;20085;-57
2024/04/07 10:21:12;;;;;;;3.80;0.88;;;;;;;37.97;37.53;99006.75;4971671;28;20110;-58
2024/04/07 10:23:39;;;;;;;5.35;1.20;;;;;;;38.02;38.01;98995.13;4970523;28;20130;-58
2024/04/07 10:26:06;;;;;;;3.33;1.00;;;;;;;38.29;36.97;98984.56;4970752;28;20482;-58
2024/04/07 10:28:49;;;;;;;6.80;1.30;;;;;;;39.06;36.62;98987.84;4973618;28;20031;-58
2024/04/07 10:31:25;;;;;;;11.07;2.03;;;;;;;40.91;35.21;98977.97;4963286;28;20035;-58
2024/04/07 10:33:52;;;;;;;6.93;1.48;;;;;;;40.28;33.63;98975.34;4973423;28;20027;-58
2024/04/07 10:36:20;;;;;;;7.10;1.10;;;;;;;39.23;34.96;98983.56;4967521;28;20038;-58
2024/04/07 10:38:56;;;;;;;7.05;1.23;;;;;;;37.78;35.99;98970.13;4968223;28;20502;-58
2024/04/07 10:41:27;;;;;;;5.03;1.23;;;;;;;39.10;35.82;98959.59;4974005;28;20026;-59
2024/04/07 10:43:53;;;;;;;5.18;1.10;;;;;;;40.32;35.72;98947.00;4967492;28;20360;-57
2024/04/07 10:46:20;;;;;;;5.22;1.33;;;;;;;38.97;35.71;98948.56;4967783;28;20035;-57
2024/04/07 10:48:47;;;;;;;3.60;0.90;;;;;;;37.82;36.48;98957.69;4970847;28;20502;-57
2024/04/07 10:51:13;;;;;;;4.07;1.15;;;;;;;37.92;37.77;98957.03;4972784;28;20177;-56
2024/04/07 10:53:42;;;;;;;6.18;0.80;;;;;;;38.03;36.84;98948.72;4971619;28;20522;-57
2024/04/07 10:56:07;;;;;;;4.60;1.00;;;;;;;37.88;36.75;98947.69;4973586;28;20046;-58
2024/04/07 10:58:40;;;;;;;4.82;1.40;;;;;;;37.72;37.72;98961.19;4967627;28;20027;-57
2024/04/07 11:01:05;;;;;;;6.15;1.40;;;;;;;38.10;36.51;98962.13;4970084;28;20062;-58
2024/04/07 11:03:36;;;;;;;6.82;0.98;;;;;;;36.72;36.99;98962.31;4971302;28;20075;-58
2024/04/07 11:06:03;;;;;;;4.45;1.20;;;;;;;36.83;36.69;98957.69;4970589;28;20490;-58
2024/04/07 11:08:29;;;;;;;5.63;1.33;;;;;;;34.87;37.97;98947.31;4967166;28;20042;-58
2024/04/07 11:10:54;;;;;;;5.88;0.80;;;;;;;36.19;38.62;98952.44;4967851;28;20023;-58
2024/04/07 11:13:22;;;;;;;4.82;1.00;;;;;;;36.16;39.62;98952.38;4971689;28;20042;-58
2024/04/07 11:15:51;;;;;;;5.47;1.10;;;;;;;36.07;38.44;98941.31;4974996;28;20077;-58
2024/04/07 11:18:18;;;;;;;5.53;1.17;;;;;;;37.71;37.06;98946.25;4971718;28;20117;-57
2024/04/07 11:20:45;;;;;;;8.18;1.13;;;;;;;38.03;36.30;98937.41;4971779;28;20033;-58
2024/04/07 11:23:11;;;;;;;5.60;1.10;;;;;;;38.00;36.58;98932.53;4970546;28;20069;-58
2024/04/07 11:25:38;;;;;;;6.25;1.08;;;;;;;37.98;37.28;98922.81;4970027;28;20447;-58
2024/04/07 11:28:04;;;;;;;4.55;1.30;;;;;;;37.60;37.73;98924.69;4969115;28;20117;-58